sensor_id;sensor_type;location;lat;lon;timestamp;pressure;altitude;pressure_sealevel;temperature
68745;BMP180;66104;45.456;11.064;2023-02-28T00:00:50;101200.80;;;6.30
68745;BMP180;66104;45.456;11.064;2023-02-28T00:03:28;101212.80;;;6.28
68745;BMP180;66104;45.456;11.064;2023-02-28T00:06:14;101200.40;;;6.22
68745;BMP180;66104;45.456;11.064;2023-02-28T00:08:50;101205.20;;;6.30
68745;BMP180;66104;45.456;11.064;2023-02-28T00:11:28;101207.20;;;6.30
68745;BMP180;66104;45.456;11.064;2023-02-28T00:14:06;101208.00;;;6.22
68745;BMP180;66104;45.456;11.064;2023-02-28T00:16:43;101208.80;;;6.26
68745;BMP180;66104;45.456;11.064;2023-02-28T00:19:19;101212.00;;;6.20
68745;BMP180;66104;45.456;11.064;2023-02-28T00:21:56;101221.80;;;6.30
68745;BMP180;66104;45.456;11.064;2023-02-28T00:24:32;101235.20;;;6.30
68745;BMP180;66104;45.456;11.064;2023-02-28T00:27:10;101225.20;;;6.22
68745;BMP180;66104;45.456;11.064;2023-02-28T00:29:48;101229.00;;;6.20
68745;BMP180;66104;45.456;11.064;2023-02-28T00:32:25;101227.40;;;6.20
68745;BMP180;66104;45.456;11.064;2023-02-28T00:35:01;101230.40;;;6.16
68745;BMP180;66104;45.456;11.064;2023-02-28T00:37:39;101231.00;;;6.16
68745;BMP180;66104;45.456;11.064;2023-02-28T00:40:18;101234.60;;;6.16
68745;BMP180;66104;45.456;11.064;2023-02-28T00:42:55;101233.20;;;6.12
68745;BMP180;66104;45.456;11.064;2023-02-28T00:45:31;101236.00;;;6.10
68745;BMP180;66104;45.456;11.064;2023-02-28T00:48:08;101235.80;;;6.10
68745;BMP180;66104;45.456;11.064;2023-02-28T00:50:45;101233.00;;;6.10
68745;BMP180;66104;45.456;11.064;2023-02-28T00:53:24;101238.00;;;6.08
68745;BMP180;66104;45.456;11.064;2023-02-28T00:56:03;101228.60;;;6.10
68745;BMP180;66104;45.456;11.064;2023-02-28T00:58:38;101235.80;;;6.10
68745;BMP180;66104;45.456;11.064;2023-02-28T01:01:15;101234.20;;;6.10
68745;BMP180;66104;45.456;11.064;2023-02-28T01:03:52;101247.00;;;6.10
68745;BMP180;66104;45.456;11.064;2023-02-28T01:06:29;101243.60;;;6.10
68745;BMP180;66104;45.456;11.064;2023-02-28T01:09:06;101241.80;;;6.10
68745;BMP180;66104;45.456;11.064;2023-02-28T01:11:43;101244.80;;;6.10
68745;BMP180;66104;45.456;11.064;2023-02-28T01:14:20;101249.20;;;6.10
68745;BMP180;66104;45.456;11.064;2023-02-28T01:16:58;101249.60;;;6.00
68745;BMP180;66104;45.456;11.064;2023-02-28T01:19:33;101255.60;;;6.00
68745;BMP180;66104;45.456;11.064;2023-02-28T01:22:10;101258.00;;;6.00
68745;BMP180;66104;45.456;11.064;2023-02-28T01:24:48;101257.20;;;6.00
68745;BMP180;66104;45.456;11.064;2023-02-28T01:27:25;101252.60;;;6.00
68745;BMP180;66104;45.456;11.064;2023-02-28T01:30:02;101254.20;;;6.00
68745;BMP180;66104;45.456;11.064;2023-02-28T01:32:38;101254.60;;;6.00
68745;BMP180;66104;45.456;11.064;2023-02-28T01:35:15;101252.60;;;6.00
68745;BMP180;66104;45.456;11.064;2023-02-28T01:37:52;101252.00;;;6.00
68745;BMP180;66104;45.456;11.064;2023-02-28T01:40:31;101249.80;;;5.90
68745;BMP180;66104;45.456;11.064;2023-02-28T01:43:22;101248.40;;;5.90
68745;BMP180;66104;45.456;11.064;2023-02-28T01:46:01;101255.00;;;5.90
68745;BMP180;66104;45.456;11.064;2023-02-28T01:48:43;101259.00;;;5.90
68745;BMP180;66104;45.456;11.064;2023-02-28T01:51:24;101260.40;;;5.90
68745;BMP180;66104;45.456;11.064;2023-02-28T01:54:05;101256.20;;;5.90
68745;BMP180;66104;45.456;11.064;2023-02-28T01:56:51;101257.60;;;5.90
68745;BMP180;66104;45.456;11.064;2023-02-28T01:59:34;101256.20;;;5.90
68745;BMP180;66104;45.456;11.064;2023-02-28T02:02:12;101263.80;;;5.90
68745;BMP180;66104;45.456;11.064;2023-02-28T02:04:55;101257.20;;;5.90
68745;BMP180;66104;45.456;11.064;2023-02-28T02:07:35;101260.40;;;5.90
68745;BMP180;66104;45.456;11.064;2023-02-28T02:10:18;101256.60;;;5.90
68745;BMP180;66104;45.456;11.064;2023-02-28T02:13:25;101254.60;;;5.84
68745;BMP180;66104;45.456;11.064;2023-02-28T02:16:18;101248.40;;;5.90
68745;BMP180;66104;45.456;11.064;2023-02-28T02:19:07;101240.40;;;5.90
68745;BMP180;66104;45.456;11.064;2023-02-28T02:22:20;101245.80;;;5.90
68745;BMP180;66104;45.456;11.064;2023-02-28T02:25:14;101238.60;;;5.90
68745;BMP180;66104;45.456;11.064;2023-02-28T02:31:58;101236.60;;;5.90
68745;BMP180;66104;45.456;11.064;2023-02-28T02:35:04;101231.40;;;5.90
68745;BMP180;66104;45.456;11.064;2023-02-28T02:37:51;101218.60;;;5.90
68745;BMP180;66104;45.456;11.064;2023-02-28T02:40:35;101223.20;;;5.90
68745;BMP180;66104;45.456;11.064;2023-02-28T02:43:22;101226.60;;;5.90
68745;BMP180;66104;45.456;11.064;2023-02-28T02:46:09;101220.00;;;5.90
68745;BMP180;66104;45.456;11.064;2023-02-28T02:48:47;101220.80;;;5.92
68745;BMP180;66104;45.456;11.064;2023-02-28T02:51:26;101228.80;;;6.00
68745;BMP180;66104;45.456;11.064;2023-02-28T02:54:11;101224.20;;;6.00
68745;BMP180;66104;45.456;11.064;2023-02-28T02:56:53;101228.20;;;6.00
68745;BMP180;66104;45.456;11.064;2023-02-28T02:59:31;101237.00;;;6.00
68745;BMP180;66104;45.456;11.064;2023-02-28T03:02:13;101234.20;;;5.96
68745;BMP180;66104;45.456;11.064;2023-02-28T03:04:56;101230.40;;;5.90
68745;BMP180;66104;45.456;11.064;2023-02-28T03:07:35;101232.80;;;5.90
68745;BMP180;66104;45.456;11.064;2023-02-28T03:10:33;101227.40;;;5.90
68745;BMP180;66104;45.456;11.064;2023-02-28T03:13:57;101230.60;;;5.90
68745;BMP180;66104;45.456;11.064;2023-02-28T03:16:51;101234.00;;;5.90
68745;BMP180;66104;45.456;11.064;2023-02-28T03:19:59;101223.00;;;5.90
68745;BMP180;66104;45.456;11.064;2023-02-28T03:23:01;101227.80;;;5.94
68745;BMP180;66104;45.456;11.064;2023-02-28T03:25:51;101229.00;;;5.90
68745;BMP180;66104;45.456;11.064;2023-02-28T03:28:40;101228.20;;;5.90
68745;BMP180;66104;45.456;11.064;2023-02-28T03:31:25;101223.00;;;5.98
68745;BMP180;66104;45.456;11.064;2023-02-28T03:34:12;101226.80;;;6.00
68745;BMP180;66104;45.456;11.064;2023-02-28T03:36:57;101226.20;;;6.00
68745;BMP180;66104;45.456;11.064;2023-02-28T03:39:42;101224.00;;;6.00
68745;BMP180;66104;45.456;11.064;2023-02-28T03:42:24;101227.40;;;6.00
68745;BMP180;66104;45.456;11.064;2023-02-28T03:45:09;101224.80;;;6.00
68745;BMP180;66104;45.456;11.064;2023-02-28T03:47:54;101224.40;;;6.00
68745;BMP180;66104;45.456;11.064;2023-02-28T03:50:39;101226.20;;;6.00
68745;BMP180;66104;45.456;11.064;2023-02-28T03:53:19;101232.20;;;6.00
68745;BMP180;66104;45.456;11.064;2023-02-28T03:56:03;101229.20;;;6.00
68745;BMP180;66104;45.456;11.064;2023-02-28T03:58:51;101230.40;;;5.96
68745;BMP180;66104;45.456;11.064;2023-02-28T04:01:33;101235.00;;;5.90
68745;BMP180;66104;45.456;11.064;2023-02-28T04:04:12;101232.20;;;5.90
68745;BMP180;66104;45.456;11.064;2023-02-28T04:06:51;101232.60;;;5.88
68745;BMP180;66104;45.456;11.064;2023-02-28T04:09:28;101235.00;;;5.80
68745;BMP180;66104;45.456;11.064;2023-02-28T04:12:05;101234.80;;;5.86
68745;BMP180;66104;45.456;11.064;2023-02-28T04:14:42;101239.80;;;5.82
68745;BMP180;66104;45.456;11.064;2023-02-28T04:17:20;101247.20;;;5.82
68745;BMP180;66104;45.456;11.064;2023-02-28T04:19:57;101249.40;;;5.86
68745;BMP180;66104;45.456;11.064;2023-02-28T04:22:34;101252.00;;;5.90
68745;BMP180;66104;45.456;11.064;2023-02-28T04:25:14;101258.60;;;5.90
68745;BMP180;66104;45.456;11.064;2023-02-28T04:27:51;101259.20;;;5.90
68745;BMP180;66104;45.456;11.064;2023-02-28T04:30:27;101265.00;;;5.90
68745;BMP180;66104;45.456;11.064;2023-02-28T04:33:06;101265.40;;;5.90
68745;BMP180;66104;45.456;11.064;2023-02-28T04:35:43;101265.80;;;5.90
68745;BMP180;66104;45.456;11.064;2023-02-28T04:38:20;101269.40;;;5.90
68745;BMP180;66104;45.456;11.064;2023-02-28T04:40:59;101265.80;;;5.98
68745;BMP180;66104;45.456;11.064;2023-02-28T04:43:36;101269.60;;;6.00
68745;BMP180;66104;45.456;11.064;2023-02-28T04:46:13;101269.60;;;6.00
68745;BMP180;66104;45.456;11.064;2023-02-28T04:48:50;101269.20;;;6.00
68745;BMP180;66104;45.456;11.064;2023-02-28T04:51:27;101266.20;;;6.00
68745;BMP180;66104;45.456;11.064;2023-02-28T04:54:04;101272.00;;;6.00
68745;BMP180;66104;45.456;11.064;2023-02-28T04:56:41;101274.00;;;5.94
68745;BMP180;66104;45.456;11.064;2023-02-28T04:59:17;101270.40;;;5.90
68745;BMP180;66104;45.456;11.064;2023-02-28T05:01:54;101269.80;;;5.90
68745;BMP180;66104;45.456;11.064;2023-02-28T05:04:31;101272.60;;;5.90
68745;BMP180;66104;45.456;11.064;2023-02-28T05:07:08;101276.60;;;5.88
68745;BMP180;66104;45.456;11.064;2023-02-28T05:09:48;101277.20;;;5.80
68745;BMP180;66104;45.456;11.064;2023-02-28T05:12:25;101280.00;;;5.80
68745;BMP180;66104;45.456;11.064;2023-02-28T05:15:01;101275.80;;;5.80
68745;BMP180;66104;45.456;11.064;2023-02-28T05:17:38;101274.20;;;5.80
68745;BMP180;66104;45.456;11.064;2023-02-28T05:20:19;101271.80;;;5.80
68745;BMP180;66104;45.456;11.064;2023-02-28T05:22:56;101271.60;;;5.76
68745;BMP180;66104;45.456;11.064;2023-02-28T05:25:59;101273.20;;;5.80
68745;BMP180;66104;45.456;11.064;2023-02-28T05:28:36;101275.40;;;5.80
68745;BMP180;66104;45.456;11.064;2023-02-28T05:31:13;101274.20;;;5.80
68745;BMP180;66104;45.456;11.064;2023-02-28T05:33:50;101277.80;;;5.80
68745;BMP180;66104;45.456;11.064;2023-02-28T05:36:26;101268.80;;;5.80
68745;BMP180;66104;45.456;11.064;2023-02-28T05:39:04;101274.00;;;5.80
68745;BMP180;66104;45.456;11.064;2023-02-28T05:41:41;101274.20;;;5.80
68745;BMP180;66104;45.456;11.064;2023-02-28T05:44:17;101271.60;;;5.80
68745;BMP180;66104;45.456;11.064;2023-02-28T05:46:54;101282.40;;;5.80
68745;BMP180;66104;45.456;11.064;2023-02-28T05:49:31;101279.80;;;5.80
68745;BMP180;66104;45.456;11.064;2023-02-28T05:52:09;101281.60;;;5.80
68745;BMP180;66104;45.456;11.064;2023-02-28T05:54:46;101279.00;;;5.80
68745;BMP180;66104;45.456;11.064;2023-02-28T05:57:23;101283.20;;;5.80
68745;BMP180;66104;45.456;11.064;2023-02-28T05:59:59;101278.20;;;5.80
68745;BMP180;66104;45.456;11.064;2023-02-28T06:02:45;101282.80;;;5.80
68745;BMP180;66104;45.456;11.064;2023-02-28T06:05:23;101285.20;;;5.70
68745;BMP180;66104;45.456;11.064;2023-02-28T06:08:00;101278.60;;;5.70
68745;BMP180;66104;45.456;11.064;2023-02-28T06:10:38;101285.40;;;5.72
68745;BMP180;66104;45.456;11.064;2023-02-28T06:13:15;101288.80;;;5.70
68745;BMP180;66104;45.456;11.064;2023-02-28T06:15:52;101298.40;;;5.70
68745;BMP180;66104;45.456;11.064;2023-02-28T06:18:30;101293.80;;;5.70
68745;BMP180;66104;45.456;11.064;2023-02-28T06:21:08;101303.80;;;5.70
68745;BMP180;66104;45.456;11.064;2023-02-28T06:23:45;101303.00;;;5.72
68745;BMP180;66104;45.456;11.064;2023-02-28T06:26:21;101302.80;;;5.80
68745;BMP180;66104;45.456;11.064;2023-02-28T06:28:58;101307.40;;;5.90
68745;BMP180;66104;45.456;11.064;2023-02-28T06:31:36;101295.60;;;5.92
68745;BMP180;66104;45.456;11.064;2023-02-28T06:34:13;101303.60;;;6.00
68745;BMP180;66104;45.456;11.064;2023-02-28T06:36:51;101309.00;;;6.10
68745;BMP180;66104;45.456;11.064;2023-02-28T06:39:28;101300.60;;;6.10
68745;BMP180;66104;45.456;11.064;2023-02-28T06:42:05;101303.60;;;6.20
68745;BMP180;66104;45.456;11.064;2023-02-28T06:44:43;101305.60;;;6.20
68745;BMP180;66104;45.456;11.064;2023-02-28T06:47:21;101306.60;;;6.20
68745;BMP180;66104;45.456;11.064;2023-02-28T06:49:58;101314.60;;;6.20
68745;BMP180;66104;45.456;11.064;2023-02-28T06:52:36;101310.60;;;6.28
68745;BMP180;66104;45.456;11.064;2023-02-28T06:55:15;101318.80;;;6.30
68745;BMP180;66104;45.456;11.064;2023-02-28T06:57:53;101323.20;;;6.32
68745;BMP180;66104;45.456;11.064;2023-02-28T07:00:31;101323.40;;;6.38
68745;BMP180;66104;45.456;11.064;2023-02-28T07:03:09;101318.40;;;6.40
68745;BMP180;66104;45.456;11.064;2023-02-28T07:05:46;101317.60;;;6.40
68745;BMP180;66104;45.456;11.064;2023-02-28T07:08:23;101321.00;;;6.44
68745;BMP180;66104;45.456;11.064;2023-02-28T07:11:01;101315.60;;;6.50
68745;BMP180;66104;45.456;11.064;2023-02-28T07:13:38;101326.20;;;6.50
68745;BMP180;66104;45.456;11.064;2023-02-28T07:16:16;101323.60;;;6.50
68745;BMP180;66104;45.456;11.064;2023-02-28T07:18:53;101320.20;;;6.60
68745;BMP180;66104;45.456;11.064;2023-02-28T07:21:32;101316.60;;;6.60
68745;BMP180;66104;45.456;11.064;2023-02-28T07:24:10;101315.40;;;6.62
68745;BMP180;66104;45.456;11.064;2023-02-28T07:26:49;101316.00;;;6.70
68745;BMP180;66104;45.456;11.064;2023-02-28T07:29:27;101317.60;;;6.70
68745;BMP180;66104;45.456;11.064;2023-02-28T07:32:04;101318.60;;;6.70
68745;BMP180;66104;45.456;11.064;2023-02-28T07:34:41;101319.00;;;6.76
68745;BMP180;66104;45.456;11.064;2023-02-28T07:37:17;101321.80;;;6.80
68745;BMP180;66104;45.456;11.064;2023-02-28T07:39:55;101320.40;;;6.90
68745;BMP180;66104;45.456;11.064;2023-02-28T07:42:33;101319.20;;;6.90
68745;BMP180;66104;45.456;11.064;2023-02-28T07:45:14;101317.40;;;7.00
68745;BMP180;66104;45.456;11.064;2023-02-28T07:47:50;101315.60;;;6.90
68745;BMP180;66104;45.456;11.064;2023-02-28T07:50:28;101314.80;;;6.90
68745;BMP180;66104;45.456;11.064;2023-02-28T07:53:04;101314.80;;;6.90
68745;BMP180;66104;45.456;11.064;2023-02-28T07:55:42;101314.00;;;7.00
68745;BMP180;66104;45.456;11.064;2023-02-28T07:58:19;101311.40;;;7.04
68745;BMP180;66104;45.456;11.064;2023-02-28T08:00:56;101319.60;;;7.10
68745;BMP180;66104;45.456;11.064;2023-02-28T08:03:33;101315.00;;;7.20
68745;BMP180;66104;45.456;11.064;2023-02-28T08:06:17;101318.00;;;7.20
68745;BMP180;66104;45.456;11.064;2023-02-28T08:08:55;101318.80;;;7.30
68745;BMP180;66104;45.456;11.064;2023-02-28T08:11:32;101320.60;;;7.40
68745;BMP180;66104;45.456;11.064;2023-02-28T08:14:09;101321.80;;;7.48
68745;BMP180;66104;45.456;11.064;2023-02-28T08:16:45;101322.80;;;7.50
68745;BMP180;66104;45.456;11.064;2023-02-28T08:19:21;101321.40;;;7.50
68745;BMP180;66104;45.456;11.064;2023-02-28T08:21:59;101321.00;;;7.60
68745;BMP180;66104;45.456;11.064;2023-02-28T08:24:36;101324.20;;;7.70
68745;BMP180;66104;45.456;11.064;2023-02-28T08:27:12;101319.20;;;7.70
68745;BMP180;66104;45.456;11.064;2023-02-28T08:29:50;101323.00;;;7.70
68745;BMP180;66104;45.456;11.064;2023-02-28T08:32:26;101333.20;;;7.70
68745;BMP180;66104;45.456;11.064;2023-02-28T08:35:04;101333.80;;;7.70
68745;BMP180;66104;45.456;11.064;2023-02-28T08:37:40;101330.00;;;7.70
68745;BMP180;66104;45.456;11.064;2023-02-28T08:40:21;101325.20;;;7.80
68745;BMP180;66104;45.456;11.064;2023-02-28T08:42:58;101327.60;;;7.82
68745;BMP180;66104;45.456;11.064;2023-02-28T08:45:36;101323.80;;;7.90
68745;BMP180;66104;45.456;11.064;2023-02-28T08:48:12;101320.60;;;7.90
68745;BMP180;66104;45.456;11.064;2023-02-28T08:51:02;101323.60;;;8.00
68745;BMP180;66104;45.456;11.064;2023-02-28T08:53:41;101323.20;;;8.10
68745;BMP180;66104;45.456;11.064;2023-02-28T08:56:18;101322.60;;;8.12
68745;BMP180;66104;45.456;11.064;2023-02-28T08:58:56;101321.20;;;8.20
68745;BMP180;66104;45.456;11.064;2023-02-28T09:01:33;101320.40;;;8.20
68745;BMP180;66104;45.456;11.064;2023-02-28T09:04:11;101321.40;;;8.20
68745;BMP180;66104;45.456;11.064;2023-02-28T09:06:52;101323.60;;;8.30
68745;BMP180;66104;45.456;11.064;2023-02-28T09:09:30;101324.80;;;8.30
68745;BMP180;66104;45.456;11.064;2023-02-28T09:12:08;101329.00;;;8.30
68745;BMP180;66104;45.456;11.064;2023-02-28T09:14:45;101329.60;;;8.30
68745;BMP180;66104;45.456;11.064;2023-02-28T09:17:22;101329.80;;;8.30
68745;BMP180;66104;45.456;11.064;2023-02-28T09:20:04;101333.20;;;8.30
68745;BMP180;66104;45.456;11.064;2023-02-28T09:22:42;101339.00;;;8.30
68745;BMP180;66104;45.456;11.064;2023-02-28T09:25:21;101333.20;;;8.32
68745;BMP180;66104;45.456;11.064;2023-02-28T09:27:57;101336.80;;;8.30
68745;BMP180;66104;45.456;11.064;2023-02-28T09:30:34;101332.40;;;8.30
68745;BMP180;66104;45.456;11.064;2023-02-28T09:33:11;101331.40;;;8.40
68745;BMP180;66104;45.456;11.064;2023-02-28T09:35:47;101330.60;;;8.40
68745;BMP180;66104;45.456;11.064;2023-02-28T09:38:24;101326.20;;;8.50
68745;BMP180;66104;45.456;11.064;2023-02-28T09:41:02;101325.00;;;8.60
68745;BMP180;66104;45.456;11.064;2023-02-28T09:43:45;101326.80;;;8.70
68745;BMP180;66104;45.456;11.064;2023-02-28T09:46:35;101326.00;;;8.72
68745;BMP180;66104;45.456;11.064;2023-02-28T09:49:19;101329.00;;;8.70
68745;BMP180;66104;45.456;11.064;2023-02-28T09:52:04;101326.80;;;8.80
68745;BMP180;66104;45.456;11.064;2023-02-28T09:54:42;101323.20;;;8.90
68745;BMP180;66104;45.456;11.064;2023-02-28T09:57:32;101316.80;;;8.90
68745;BMP180;66104;45.456;11.064;2023-02-28T10:00:20;101320.40;;;9.00
68745;BMP180;66104;45.456;11.064;2023-02-28T10:03:24;101325.00;;;9.10
68745;BMP180;66104;45.456;11.064;2023-02-28T10:06:11;101320.60;;;9.10
68745;BMP180;66104;45.456;11.064;2023-02-28T10:09:03;101322.20;;;9.20
68745;BMP180;66104;45.456;11.064;2023-02-28T10:11:41;101320.40;;;9.20
68745;BMP180;66104;45.456;11.064;2023-02-28T10:14:24;101324.00;;;9.30
68745;BMP180;66104;45.456;11.064;2023-02-28T10:17:07;101325.80;;;9.40
68745;BMP180;66104;45.456;11.064;2023-02-28T10:19:54;101323.00;;;9.46
68745;BMP180;66104;45.456;11.064;2023-02-28T10:22:40;101321.20;;;9.50
68745;BMP180;66104;45.456;11.064;2023-02-28T10:25:25;101314.00;;;9.48
68745;BMP180;66104;45.456;11.064;2023-02-28T10:28:11;101312.20;;;9.50
68745;BMP180;66104;45.456;11.064;2023-02-28T10:30:51;101316.80;;;9.56
68745;BMP180;66104;45.456;11.064;2023-02-28T10:33:33;101308.80;;;9.60
68745;BMP180;66104;45.456;11.064;2023-02-28T10:36:16;101306.00;;;9.70
68745;BMP180;66104;45.456;11.064;2023-02-28T10:38:53;101309.40;;;9.70
68745;BMP180;66104;45.456;11.064;2023-02-28T10:41:35;101312.40;;;9.70
68745;BMP180;66104;45.456;11.064;2023-02-28T10:44:26;101310.20;;;9.70
68745;BMP180;66104;45.456;11.064;2023-02-28T10:47:04;101309.80;;;9.70
68745;BMP180;66104;45.456;11.064;2023-02-28T10:49:49;101308.00;;;9.86
68745;BMP180;66104;45.456;11.064;2023-02-28T10:52:42;101301.60;;;9.96
68745;BMP180;66104;45.456;11.064;2023-02-28T10:55:25;101304.00;;;10.00
68745;BMP180;66104;45.456;11.064;2023-02-28T10:58:01;101302.20;;;10.00
68745;BMP180;66104;45.456;11.064;2023-02-28T11:00:40;101299.00;;;9.90
68745;BMP180;66104;45.456;11.064;2023-02-28T11:03:32;101284.80;;;9.90
68745;BMP180;66104;45.456;11.064;2023-02-28T11:06:18;101287.20;;;10.08
68745;BMP180;66104;45.456;11.064;2023-02-28T11:08:59;101280.20;;;10.12
68745;BMP180;66104;45.456;11.064;2023-02-28T11:11:47;101274.80;;;10.20
68745;BMP180;66104;45.456;11.064;2023-02-28T11:14:28;101272.40;;;10.22
68745;BMP180;66104;45.456;11.064;2023-02-28T11:17:23;101272.40;;;10.20
68745;BMP180;66104;45.456;11.064;2023-02-28T11:20:04;101267.20;;;10.20
68745;BMP180;66104;45.456;11.064;2023-02-28T11:22:46;101260.40;;;10.30
68745;BMP180;66104;45.456;11.064;2023-02-28T11:25:29;101262.40;;;10.34
68745;BMP180;66104;45.456;11.064;2023-02-28T11:28:22;101258.20;;;10.30
68745;BMP180;66104;45.456;11.064;2023-02-28T11:31:25;101253.80;;;10.30
68745;BMP180;66104;45.456;11.064;2023-02-28T11:34:10;101253.40;;;10.30
68745;BMP180;66104;45.456;11.064;2023-02-28T11:37:01;101256.40;;;10.40
68745;BMP180;66104;45.456;11.064;2023-02-28T11:39:39;101238.80;;;10.50
68745;BMP180;66104;45.456;11.064;2023-02-28T11:42:41;101241.80;;;10.50
68745;BMP180;66104;45.456;11.064;2023-02-28T11:45:47;101221.80;;;10.50
68745;BMP180;66104;45.456;11.064;2023-02-28T11:48:36;101217.40;;;10.60
68745;BMP180;66104;45.456;11.064;2023-02-28T11:51:23;101217.20;;;10.78
68745;BMP180;66104;45.456;11.064;2023-02-28T11:54:31;101222.20;;;10.80
68745;BMP180;66104;45.456;11.064;2023-02-28T11:57:32;101221.60;;;10.80
68745;BMP180;66104;45.456;11.064;2023-02-28T12:00:28;101209.40;;;10.80
68745;BMP180;66104;45.456;11.064;2023-02-28T12:03:24;101208.00;;;10.90
68745;BMP180;66104;45.456;11.064;2023-02-28T12:06:18;101198.00;;;10.90
68745;BMP180;66104;45.456;11.064;2023-02-28T12:09:13;101200.80;;;10.92
68745;BMP180;66104;45.456;11.064;2023-02-28T12:12:04;101189.20;;;10.90
68745;BMP180;66104;45.456;11.064;2023-02-28T12:15:19;101189.60;;;10.98
68745;BMP180;66104;45.456;11.064;2023-02-28T12:18:42;101190.40;;;11.00
68745;BMP180;66104;45.456;11.064;2023-02-28T12:21:34;101190.00;;;11.00
68745;BMP180;66104;45.456;11.064;2023-02-28T12:24:31;101193.80;;;11.00
68745;BMP180;66104;45.456;11.064;2023-02-28T12:27:15;101181.40;;;11.00
68745;BMP180;66104;45.456;11.064;2023-02-28T12:29:58;101171.20;;;11.00
68745;BMP180;66104;45.456;11.064;2023-02-28T12:32:41;101166.80;;;11.10
68745;BMP180;66104;45.456;11.064;2023-02-28T12:35:25;101153.60;;;11.20
68745;BMP180;66104;45.456;11.064;2023-02-28T12:38:12;101157.40;;;11.32
68745;BMP180;66104;45.456;11.064;2023-02-28T12:40:56;101154.00;;;11.50
68745;BMP180;66104;45.456;11.064;2023-02-28T12:43:41;101163.20;;;11.50
68745;BMP180;66104;45.456;11.064;2023-02-28T12:46:25;101156.00;;;11.50
68745;BMP180;66104;45.456;11.064;2023-02-28T12:49:12;101152.20;;;11.40
68745;BMP180;66104;45.456;11.064;2023-02-28T12:51:51;101153.80;;;11.50
68745;BMP180;66104;45.456;11.064;2023-02-28T12:54:35;101147.80;;;11.40
68745;BMP180;66104;45.456;11.064;2023-02-28T12:57:22;101141.80;;;11.42
68745;BMP180;66104;45.456;11.064;2023-02-28T13:00:08;101134.80;;;11.50
68745;BMP180;66104;45.456;11.064;2023-02-28T13:09:24;101127.20;;;11.50
68745;BMP180;66104;45.456;11.064;2023-02-28T13:12:04;101132.60;;;11.32
68745;BMP180;66104;45.456;11.064;2023-02-28T13:14:48;101128.00;;;11.34
68745;BMP180;66104;45.456;11.064;2023-02-28T13:17:26;101127.80;;;11.40
68745;BMP180;66104;45.456;11.064;2023-02-28T13:20:14;101116.60;;;11.42
68745;BMP180;66104;45.456;11.064;2023-02-28T13:22:52;101119.00;;;11.48
68745;BMP180;66104;45.456;11.064;2023-02-28T13:25:55;101111.60;;;11.48
68745;BMP180;66104;45.456;11.064;2023-02-28T13:29:27;101105.20;;;11.54
68745;BMP180;66104;45.456;11.064;2023-02-28T13:32:43;101110.00;;;11.70
68745;BMP180;66104;45.456;11.064;2023-02-28T13:35:44;101111.80;;;11.70
68745;BMP180;66104;45.456;11.064;2023-02-28T13:38:45;101108.60;;;11.70
68745;BMP180;66104;45.456;11.064;2023-02-28T13:41:50;101104.00;;;11.70
68745;BMP180;66104;45.456;11.064;2023-02-28T13:44:28;101109.00;;;11.80
68745;BMP180;66104;45.456;11.064;2023-02-28T13:47:30;101107.20;;;11.80
68745;BMP180;66104;45.456;11.064;2023-02-28T13:50:26;101099.60;;;11.80
68745;BMP180;66104;45.456;11.064;2023-02-28T13:53:49;101094.00;;;11.80
68745;BMP180;66104;45.456;11.064;2023-02-28T13:56:39;101083.40;;;11.80
68745;BMP180;66104;45.456;11.064;2023-02-28T13:59:31;101081.80;;;11.90
68745;BMP180;66104;45.456;11.064;2023-02-28T14:02:48;101081.20;;;12.00
68745;BMP180;66104;45.456;11.064;2023-02-28T14:05:30;101089.00;;;12.10
68745;BMP180;66104;45.456;11.064;2023-02-28T14:08:15;101091.40;;;12.00
68745;BMP180;66104;45.456;11.064;2023-02-28T14:11:04;101080.80;;;11.90
68745;BMP180;66104;45.456;11.064;2023-02-28T14:13:49;101088.20;;;11.90
68745;BMP180;66104;45.456;11.064;2023-02-28T14:16:34;101077.80;;;11.90
68745;BMP180;66104;45.456;11.064;2023-02-28T14:19:19;101075.60;;;12.00
68745;BMP180;66104;45.456;11.064;2023-02-28T14:22:14;101074.00;;;12.00
68745;BMP180;66104;45.456;11.064;2023-02-28T14:25:11;101075.00;;;11.90
68745;BMP180;66104;45.456;11.064;2023-02-28T14:28:02;101075.20;;;11.80
68745;BMP180;66104;45.456;11.064;2023-02-28T14:31:03;101076.60;;;11.80
68745;BMP180;66104;45.456;11.064;2023-02-28T14:37:04;101063.20;;;11.88
68745;BMP180;66104;45.456;11.064;2023-02-28T14:39:46;101066.00;;;11.90
68745;BMP180;66104;45.456;11.064;2023-02-28T14:42:38;101059.00;;;11.90
68745;BMP180;66104;45.456;11.064;2023-02-28T14:45:24;101055.00;;;11.90
68745;BMP180;66104;45.456;11.064;2023-02-28T14:48:08;101044.80;;;12.00
68745;BMP180;66104;45.456;11.064;2023-02-28T14:50:54;101047.20;;;11.90
68745;BMP180;66104;45.456;11.064;2023-02-28T14:53:40;101053.00;;;11.80
68745;BMP180;66104;45.456;11.064;2023-02-28T14:56:26;101043.20;;;11.70
68745;BMP180;66104;45.456;11.064;2023-02-28T14:59:04;101042.80;;;11.70
68745;BMP180;66104;45.456;11.064;2023-02-28T15:01:41;101037.80;;;11.80
68745;BMP180;66104;45.456;11.064;2023-02-28T15:04:26;101049.20;;;11.80
68745;BMP180;66104;45.456;11.064;2023-02-28T15:07:16;101048.20;;;11.78
68745;BMP180;66104;45.456;11.064;2023-02-28T15:13:01;101050.80;;;11.70
68745;BMP180;66104;45.456;11.064;2023-02-28T15:15:48;101045.20;;;11.60
68745;BMP180;66104;45.456;11.064;2023-02-28T15:18:46;101038.60;;;11.58
68745;BMP180;66104;45.456;11.064;2023-02-28T15:21:27;101036.40;;;11.52
68745;BMP180;66104;45.456;11.064;2023-02-28T15:24:10;101038.20;;;11.50
68745;BMP180;66104;45.456;11.064;2023-02-28T15:26:54;101040.60;;;11.42
68745;BMP180;66104;45.456;11.064;2023-02-28T15:29:42;101046.60;;;11.32
68745;BMP180;66104;45.456;11.064;2023-02-28T15:32:34;101043.20;;;11.30
68745;BMP180;66104;45.456;11.064;2023-02-28T15:35:30;101041.20;;;11.30
68745;BMP180;66104;45.456;11.064;2023-02-28T15:38:22;101037.20;;;11.30
68745;BMP180;66104;45.456;11.064;2023-02-28T15:41:00;101040.60;;;11.30